Time;durP1;ratioP1;P1;durP2;ratioP2;P2;SDS_P1;SDS_P2;PMS_P1;PMS_P2;Temp;Humidity;BMP_temperature;BMP_pressure;BME280_temperature;BME280_humidity;BME280_pressure;Samples;Min_cycle;Max_cycle;Signal;HPM_P1;HPM_P2
2022/11/19 00:01:06;;;;;;;1.83;0.77;;;9.50;99.90;;;;;;5023231;28;20136;-75
2022/11/19 00:03:33;;;;;;;1.23;0.80;;;9.50;99.90;;;;;;5022940;28;20068;-75
2022/11/19 00:06:07;;;;;;;0.73;0.73;;;9.50;99.90;;;;;;5022402;28;20442;-75
2022/11/19 00:08:34;;;;;;;2.03;0.88;;;9.50;99.90;;;;;;5025851;28;20213;-75
2022/11/19 00:11:06;;;;;;;1.58;0.88;;;9.50;99.90;;;;;;5027347;28;20049;-74
2022/11/19 00:13:36;;;;;;;1.60;0.90;;;9.50;99.90;;;;;;5045426;28;20049;-75
2022/11/19 00:16:11;;;;;;;1.63;0.90;;;9.50;99.90;;;;;;5027504;28;20045;-75
2022/11/19 00:18:38;;;;;;;1.77;0.80;;;9.50;99.90;;;;;;5031889;28;20147;-75
2022/11/19 00:21:09;;;;;;;1.40;0.90;;;9.50;99.90;;;;;;5064904;28;20487;-75
2022/11/19 00:23:37;;;;;;;1.90;1.00;;;9.50;99.90;;;;;;5030859;28;20108;-75
2022/11/19 00:26:05;;;;;;;2.13;1.05;;;9.50;99.90;;;;;;5046731;28;20052;-75
2022/11/19 00:28:32;;;;;;;1.77;0.80;;;9.60;99.90;;;;;;5047037;28;20497;-75
2022/11/19 00:31:01;;;;;;;2.22;1.10;;;9.60;99.90;;;;;;5030033;28;20131;-75
2022/11/19 00:33:28;;;;;;;1.85;1.00;;;9.50;99.90;;;;;;5046746;28;20063;-75
2022/11/19 00:35:56;;;;;;;2.15;1.17;;;9.60;99.90;;;;;;5046041;28;20391;-75
2022/11/19 00:38:23;;;;;;;2.28;1.05;;;9.60;99.90;;;;;;5046823;28;20152;-75
2022/11/19 00:40:49;;;;;;;2.70;1.10;;;9.60;99.90;;;;;;5046185;28;20242;-75
2022/11/19 00:46:02;;;;;;;1.67;1.02;;;9.60;99.90;;;;;;5035190;28;20120;-75
2022/11/19 00:48:28;;;;;;;2.28;1.17;;;9.60;99.90;;;;;;5064490;28;20056;-77
2022/11/19 00:50:55;;;;;;;4.45;1.40;;;9.60;99.90;;;;;;5042944;28;20064;-75
2022/11/19 00:53:22;;;;;;;2.90;1.35;;;9.50;99.90;;;;;;5045703;28;20059;-75
2022/11/19 00:55:49;;;;;;;2.00;1.15;;;9.50;99.90;;;;;;5045813;28;20040;-75
2022/11/19 00:58:16;;;;;;;2.28;1.17;;;9.50;99.90;;;;;;5064446;28;20048;-75
2022/11/19 01:00:43;;;;;;;1.55;0.93;;;9.50;99.90;;;;;;5064771;28;20057;-75
2022/11/19 01:03:10;;;;;;;2.42;1.00;;;9.60;99.90;;;;;;5064995;28;20467;-75
2022/11/19 01:05:36;;;;;;;2.00;1.10;;;9.60;99.90;;;;;;5012967;28;20056;-75
2022/11/19 01:08:03;;;;;;;2.05;1.05;;;9.50;99.90;;;;;;5030104;28;20149;-75
2022/11/19 01:10:30;;;;;;;2.95;1.30;;;9.50;99.90;;;;;;5063035;28;20080;-75
2022/11/19 01:15:42;;;;;;;1.40;0.73;;;9.50;99.90;;;;;;5063223;28;20041;-75
2022/11/19 01:18:09;;;;;;;1.92;1.10;;;9.40;99.90;;;;;;5045647;28;20060;-75
2022/11/19 01:20:35;;;;;;;2.72;1.20;;;9.40;99.90;;;;;;5062034;28;20337;-75
2022/11/19 01:23:02;;;;;;;1.02;0.80;;;9.40;99.90;;;;;;5064413;28;20142;-75
2022/11/19 01:25:29;;;;;;;2.47;0.95;;;9.40;99.90;;;;;;5063414;28;20058;-75
2022/11/19 01:27:57;;;;;;;0.68;0.68;;;9.40;99.90;;;;;;5045881;28;20049;-75
2022/11/19 01:30:23;;;;;;;1.27;0.90;;;9.40;99.90;;;;;;5046430;28;20048;-75
2022/11/19 01:32:50;;;;;;;2.90;1.15;;;9.40;99.90;;;;;;5063715;28;20056;-75
2022/11/19 01:35:17;;;;;;;1.58;0.70;;;9.40;99.90;;;;;;5063292;28;20140;-75
2022/11/19 01:37:44;;;;;;;1.40;0.73;;;9.40;99.90;;;;;;5064447;28;20470;-75
2022/11/19 01:40:11;;;;;;;1.40;0.60;;;9.40;99.90;;;;;;5062792;28;20063;-75
2022/11/19 01:42:50;;;;;;;1.63;0.85;;;9.40;99.90;;;;;;5062867;28;20051;-75
2022/11/19 01:45:35;;;;;;;0.95;0.60;;;9.40;99.90;;;;;;5047122;28;20397;-75
2022/11/19 01:48:29;;;;;;;1.20;0.80;;;9.40;99.90;;;;;;5045893;28;20061;-75
2022/11/19 01:51:01;;;;;;;2.00;0.80;;;9.40;99.90;;;;;;5040857;28;20138;-75
2022/11/19 01:53:29;;;;;;;2.75;1.13;;;9.40;99.90;;;;;;5028617;28;20056;-75
2022/11/19 01:56:02;;;;;;;1.60;0.68;;;9.40;99.90;;;;;;5029254;28;20049;-75
2022/11/19 01:58:34;;;;;;;2.20;0.85;;;9.40;99.90;;;;;;5032243;28;20146;-75
2022/11/19 02:01:00;;;;;;;2.78;0.98;;;9.40;99.90;;;;;;5021065;28;20056;-75
2022/11/19 02:03:27;;;;;;;1.20;0.60;;;9.40;99.90;;;;;;5041579;28;20057;-75
2022/11/19 02:05:54;;;;;;;1.75;0.85;;;9.30;99.90;;;;;;5041535;28;20055;-75
2022/11/19 02:08:41;;;;;;;0.95;0.73;;;9.40;99.90;;;;;;5044163;28;20076;-75
2022/11/19 02:11:29;;;;;;;2.95;1.10;;;9.30;99.90;;;;;;5028906;28;20137;-75
2022/11/19 02:14:05;;;;;;;1.63;0.77;;;9.30;99.90;;;;;;5062947;28;20464;-75
2022/11/19 02:16:53;;;;;;;1.38;1.00;;;9.30;99.90;;;;;;5062773;28;20412;-75
2022/11/19 02:19:29;;;;;;;2.08;0.90;;;9.30;99.90;;;;;;5047297;28;20064;-75
2022/11/19 02:22:28;;;;;;;2.03;0.90;;;9.30;99.90;;;;;;5044497;28;20048;-75
2022/11/19 02:25:13;;;;;;;1.83;0.80;;;9.30;99.90;;;;;;5061521;28;20064;-75
2022/11/19 02:27:59;;;;;;;1.08;0.90;;;9.20;99.90;;;;;;5045551;28;20048;-74
2022/11/19 02:30:28;;;;;;;1.80;0.95;;;9.20;99.90;;;;;;5026658;28;20053;-74
2022/11/19 02:33:02;;;;;;;1.63;0.68;;;9.10;99.90;;;;;;5003319;28;20050;-75
2022/11/19 02:35:57;;;;;;;1.05;0.85;;;9.00;99.90;;;;;;5022142;28;20076;-75
2022/11/19 02:38:40;;;;;;;0.93;0.70;;;9.00;99.90;;;;;;5024133;28;20045;-75
2022/11/19 02:44:57;;;;;;;1.15;0.60;;;8.90;99.90;;;;;;5044127;28;19931;-74
2022/11/19 02:46:48;;;;;;;1.02;0.80;;;8.80;99.90;;;;;;5031664;28;20055;-74
2022/11/19 02:49:16;;;;;;;2.53;0.98;;;8.80;99.90;;;;;;5012200;28;20049;-75
2022/11/19 02:51:44;;;;;;;1.13;0.90;;;8.80;99.90;;;;;;5027830;28;20510;-75
2022/11/19 02:54:11;;;;;;;1.45;0.85;;;8.70;99.90;;;;;;5011430;28;20067;-75
2022/11/19 02:56:52;;;;;;;1.13;0.80;;;8.70;99.90;;;;;;5045090;28;20057;-75
2022/11/19 03:04:52;;;;;;;1.98;0.90;;;8.60;99.90;;;;;;5030992;28;20087;-77
2022/11/19 03:07:19;;;;;;;2.45;0.82;;;8.60;99.90;;;;;;5045237;28;20067;-75
2022/11/19 03:09:54;;;;;;;2.08;1.00;;;8.50;99.90;;;;;;5027610;28;20416;-75
2022/11/19 03:12:24;;;;;;;1.02;0.75;;;8.50;99.90;;;;;;5027588;28;20049;-75
2022/11/19 03:18:05;;;;;;;0.80;0.70;;;8.40;99.90;;;;;;5044572;28;20053;-75
2022/11/19 03:20:34;;;;;;;1.42;0.70;;;8.30;99.90;;;;;;5026712;28;20100;-75
2022/11/19 03:23:25;;;;;;;2.42;1.00;;;8.30;99.90;;;;;;5028073;28;20049;-75
2022/11/19 03:26:27;;;;;;;1.17;0.90;;;8.20;99.90;;;;;;5027979;28;20172;-75
2022/11/19 03:28:55;;;;;;;2.40;1.08;;;8.20;99.90;;;;;;5030956;28;20140;-75
2022/11/19 03:31:21;;;;;;;1.42;0.98;;;8.10;99.90;;;;;;5027443;28;20045;-74
2022/11/19 03:33:50;;;;;;;2.03;0.80;;;8.10;99.90;;;;;;5045004;28;20079;-75
2022/11/19 03:36:21;;;;;;;0.57;0.57;;;8.20;99.90;;;;;;5026716;28;20052;-75
2022/11/19 03:38:50;;;;;;;1.08;0.80;;;8.20;99.90;;;;;;5028183;28;20455;-75
2022/11/19 03:41:17;;;;;;;1.23;0.80;;;8.20;99.90;;;;;;5010868;28;20155;-74
2022/11/19 03:43:45;;;;;;;1.33;1.02;;;8.20;99.90;;;;;;5026915;28;20135;-75
2022/11/19 03:46:14;;;;;;;0.88;0.70;;;8.20;99.90;;;;;;5027820;28;20053;-74
2022/11/19 03:48:43;;;;;;;0.50;0.50;;;8.20;99.90;;;;;;5011029;28;20064;-75
2022/11/19 03:51:21;;;;;;;0.95;0.68;;;8.30;99.90;;;;;;5026989;28;20037;-74
2022/11/19 03:53:48;;;;;;;1.42;0.77;;;8.30;99.90;;;;;;5028480;28;20135;-75
2022/11/19 03:56:17;;;;;;;0.77;0.65;;;8.30;99.90;;;;;;5010741;28;20048;-74
2022/11/19 03:58:45;;;;;;;1.48;0.70;;;8.30;99.90;;;;;;5011100;28;20053;-75
2022/11/19 04:01:12;;;;;;;1.15;0.90;;;8.30;99.90;;;;;;5027527;28;20053;-74
2022/11/19 04:03:39;;;;;;;2.22;0.90;;;8.30;99.90;;;;;;5045176;28;20059;-75
2022/11/19 04:06:06;;;;;;;2.05;0.70;;;8.30;99.90;;;;;;5044403;28;20051;-75
2022/11/19 04:08:33;;;;;;;1.60;0.80;;;8.40;99.90;;;;;;5027385;28;20128;-75
2022/11/19 04:10:59;;;;;;;2.60;0.85;;;8.30;99.90;;;;;;5027373;28;20047;-75
2022/11/19 04:13:25;;;;;;;1.13;0.90;;;8.30;99.90;;;;;;5045202;28;20616;-75
2022/11/19 04:15:52;;;;;;;1.60;0.93;;;8.30;99.90;;;;;;5045325;28;20139;-75
2022/11/19 04:18:18;;;;;;;1.65;0.80;;;8.30;99.90;;;;;;5012526;28;20048;-75
2022/11/19 04:20:45;;;;;;;2.63;1.10;;;8.30;99.90;;;;;;5047076;28;20060;-74
2022/11/19 04:23:12;;;;;;;2.33;0.90;;;8.30;99.90;;;;;;5064992;28;20587;-74
2022/11/19 04:25:40;;;;;;;1.05;0.75;;;8.30;99.90;;;;;;5064394;28;20084;-75
2022/11/19 04:28:06;;;;;;;1.52;0.80;;;8.30;99.90;;;;;;5064252;28;20094;-74
2022/11/19 04:30:33;;;;;;;1.45;0.70;;;8.30;99.90;;;;;;5064669;28;20495;-75
2022/11/19 04:33:00;;;;;;;0.98;0.85;;;8.30;99.90;;;;;;5064357;28;20130;-75
2022/11/19 04:35:26;;;;;;;1.35;0.70;;;8.30;99.90;;;;;;5045969;28;20044;-75
2022/11/19 04:37:53;;;;;;;1.00;0.90;;;8.30;99.90;;;;;;5065328;28;20044;-74
2022/11/19 04:40:20;;;;;;;1.20;0.60;;;8.30;99.90;;;;;;5045492;28;20072;-74
2022/11/19 04:42:46;;;;;;;1.00;0.88;;;8.30;99.90;;;;;;5064031;28;20148;-75
2022/11/19 04:45:13;;;;;;;1.30;0.65;;;8.20;99.90;;;;;;5047309;28;20140;-74
2022/11/19 04:47:40;;;;;;;2.65;0.70;;;8.20;99.90;;;;;;5064291;28;20041;-74
2022/11/19 04:50:07;;;;;;;2.22;0.85;;;8.20;99.90;;;;;;5063583;28;20055;-75
2022/11/19 04:52:34;;;;;;;2.10;0.98;;;8.20;99.90;;;;;;5064803;28;20127;-75
2022/11/19 04:55:06;;;;;;;0.60;0.60;;;8.20;99.90;;;;;;5067326;28;20131;-75
2022/11/19 04:57:33;;;;;;;1.92;1.00;;;8.20;99.90;;;;;;5068395;28;20064;-75
2022/11/19 05:00:00;;;;;;;1.30;0.70;;;8.20;99.90;;;;;;5050166;28;20131;-75
2022/11/19 05:02:27;;;;;;;1.75;0.80;;;8.30;99.90;;;;;;5067841;28;20167;-75
2022/11/19 05:04:53;;;;;;;1.75;1.00;;;8.30;99.90;;;;;;5068473;28;20143;-75
2022/11/19 05:07:20;;;;;;;2.53;1.05;;;8.30;99.90;;;;;;5068035;28;20415;-75
2022/11/19 05:09:47;;;;;;;1.65;1.02;;;8.30;99.90;;;;;;5067180;28;20052;-75
2022/11/19 05:12:13;;;;;;;0.93;0.70;;;8.30;99.90;;;;;;5068165;28;20060;-75
2022/11/19 05:14:40;;;;;;;1.48;0.88;;;8.30;99.90;;;;;;5068071;28;20059;-75
2022/11/19 05:17:07;;;;;;;1.58;0.52;;;8.30;99.90;;;;;;5049555;28;20051;-75
2022/11/19 05:19:33;;;;;;;1.63;0.80;;;8.30;99.90;;;;;;5033132;28;20083;-75
2022/11/19 05:22:00;;;;;;;1.50;0.80;;;8.30;99.90;;;;;;5067517;28;20079;-75
2022/11/19 05:24:27;;;;;;;1.90;1.23;;;8.30;99.90;;;;;;5066962;28;20059;-75
2022/11/19 05:26:54;;;;;;;1.30;0.80;;;8.40;99.90;;;;;;5067547;28;20792;-74
2022/11/19 05:29:20;;;;;;;1.17;0.68;;;8.40;99.90;;;;;;5068162;28;20094;-75
2022/11/19 05:31:47;;;;;;;1.52;0.88;;;8.40;99.90;;;;;;5067537;28;20084;-74
2022/11/19 05:34:14;;;;;;;0.50;0.50;;;8.40;99.90;;;;;;5067642;28;20052;-75
2022/11/19 05:36:41;;;;;;;0.70;0.60;;;8.40;99.90;;;;;;5032645;28;20045;-75
2022/11/19 05:39:08;;;;;;;1.52;0.70;;;8.40;99.90;;;;;;5067136;28;20111;-75
2022/11/19 05:41:34;;;;;;;1.38;0.70;;;8.40;99.90;;;;;;5048487;28;20094;-75
2022/11/19 05:44:01;;;;;;;1.95;0.70;;;8.40;99.90;;;;;;5067340;28;20083;-75
2022/11/19 05:46:28;;;;;;;1.52;0.75;;;8.40;99.90;;;;;;5050058;28;20079;-74
2022/11/19 05:48:55;;;;;;;1.73;0.90;;;8.50;99.90;;;;;;5044489;28;20163;-74
2022/11/19 05:51:22;;;;;;;1.20;0.70;;;8.40;99.90;;;;;;5024915;28;20069;-75
2022/11/19 05:53:49;;;;;;;1.75;0.88;;;8.40;99.90;;;;;;5019324;28;20059;-75
2022/11/19 05:56:16;;;;;;;1.55;0.90;;;8.50;99.90;;;;;;5044861;28;20053;-74
2022/11/19 05:58:43;;;;;;;0.85;0.60;;;8.50;99.90;;;;;;5045169;28;20045;-74
2022/11/19 06:01:09;;;;;;;0.60;0.50;;;8.50;99.90;;;;;;5010873;28;20048;-74
2022/11/19 06:03:36;;;;;;;1.00;0.73;;;8.50;99.90;;;;;;5041768;28;20064;-75
2022/11/19 06:06:03;;;;;;;1.60;0.70;;;8.50;99.90;;;;;;5041717;28;20150;-75
2022/11/19 06:08:29;;;;;;;1.83;0.82;;;8.50;99.90;;;;;;5027674;28;20049;-75
2022/11/19 06:10:56;;;;;;;1.13;0.80;;;8.50;99.90;;;;;;5024004;28;20052;-75
2022/11/19 06:13:23;;;;;;;0.60;0.50;;;8.60;99.90;;;;;;5038878;28;20514;-74
2022/11/19 06:15:50;;;;;;;1.55;0.60;;;8.50;99.90;;;;;;5036808;28;20052;-75
2022/11/19 06:18:16;;;;;;;0.70;0.50;;;8.60;99.90;;;;;;5023245;28;20067;-74
2022/11/19 06:20:43;;;;;;;0.70;0.60;;;8.60;99.90;;;;;;5044418;28;20048;-75
2022/11/19 06:23:10;;;;;;;0.63;0.63;;;8.60;99.90;;;;;;5032809;28;20048;-75
2022/11/19 06:25:37;;;;;;;2.10;0.75;;;8.60;99.90;;;;;;5017761;28;20069;-75
2022/11/19 06:28:04;;;;;;;2.15;0.90;;;8.70;99.90;;;;;;5039779;28;20068;-75
2022/11/19 06:30:31;;;;;;;1.92;0.52;;;8.70;99.90;;;;;;5020643;28;20183;-76
2022/11/19 06:32:57;;;;;;;1.13;0.60;;;8.70;99.90;;;;;;5037114;28;20049;-75
2022/11/19 06:35:24;;;;;;;1.48;0.80;;;8.70;99.90;;;;;;5034812;28;20057;-74
2022/11/19 06:37:51;;;;;;;1.00;0.80;;;8.70;99.90;;;;;;5037011;28;20312;-75
2022/11/19 06:40:18;;;;;;;3.50;1.00;;;8.70;99.90;;;;;;5038238;28;20107;-75
2022/11/19 06:42:45;;;;;;;1.23;0.68;;;8.70;99.90;;;;;;5041536;28;20148;-75
2022/11/19 06:45:16;;;;;;;2.20;0.77;;;8.70;99.90;;;;;;5042470;28;20056;-75
2022/11/19 06:47:45;;;;;;;3.22;1.27;;;8.70;99.90;;;;;;5040034;28;20369;-75
2022/11/19 06:50:14;;;;;;;1.83;0.80;;;8.70;99.90;;;;;;5000776;28;20067;-74
2022/11/19 06:52:41;;;;;;;3.42;1.27;;;8.70;99.90;;;;;;5007304;28;20068;-75
2022/11/19 06:55:08;;;;;;;2.53;1.10;;;8.70;99.90;;;;;;5019483;28;20075;-75
2022/11/19 06:57:34;;;;;;;0.98;0.90;;;8.70;99.90;;;;;;5039011;28;20045;-75
2022/11/19 07:00:01;;;;;;;2.13;1.02;;;8.80;99.90;;;;;;5040212;28;20053;-75
2022/11/19 07:02:28;;;;;;;2.15;0.90;;;8.70;99.90;;;;;;5022347;28;20041;-75
2022/11/19 07:04:55;;;;;;;4.93;1.10;;;8.80;99.90;;;;;;5021964;28;20079;-74
2022/11/19 07:07:21;;;;;;;1.65;0.80;;;8.80;99.90;;;;;;5036676;28;20567;-77
2022/11/19 07:09:48;;;;;;;1.88;0.95;;;8.70;99.90;;;;;;5036782;28;20045;-74
2022/11/19 07:12:15;;;;;;;2.45;0.82;;;8.70;99.90;;;;;;5029489;28;20100;-75
2022/11/19 07:14:42;;;;;;;1.58;0.60;;;8.80;99.90;;;;;;5008074;28;20044;-75
2022/11/19 07:17:09;;;;;;;1.13;0.82;;;8.80;99.90;;;;;;5013722;28;20202;-75
2022/11/19 07:19:35;;;;;;;1.35;0.77;;;8.80;99.90;;;;;;5027378;28;20061;-75
2022/11/19 07:22:02;;;;;;;1.65;0.90;;;8.80;99.90;;;;;;5030333;28;20049;-74
2022/11/19 07:24:29;;;;;;;1.92;0.82;;;8.80;99.90;;;;;;5018371;28;20075;-76
2022/11/19 07:26:55;;;;;;;1.55;0.77;;;8.80;99.90;;;;;;5017762;28;20057;-75
2022/11/19 07:29:22;;;;;;;3.67;1.05;;;8.80;99.90;;;;;;5023505;28;20056;-75
2022/11/19 07:31:49;;;;;;;1.20;0.80;;;8.80;99.90;;;;;;5019319;28;20571;-78
2022/11/19 07:34:16;;;;;;;1.75;1.13;;;8.80;99.90;;;;;;4999364;28;20082;-77
2022/11/19 07:36:43;;;;;;;2.28;0.90;;;8.80;99.90;;;;;;5019953;28;20064;-78
2022/11/19 07:39:12;;;;;;;2.03;1.00;;;8.80;99.90;;;;;;5021112;28;20102;-78
2022/11/19 07:44:23;;;;;;;1.60;0.90;;;8.80;99.90;;;;;;5004009;28;20059;-78
2022/11/19 07:46:50;;;;;;;2.80;1.60;;;8.90;99.90;;;;;;4986903;28;20558;-78
2022/11/19 07:49:17;;;;;;;1.58;0.90;;;8.90;99.90;;;;;;5020462;28;20056;-78
2022/11/19 07:51:44;;;;;;;1.27;0.70;;;8.90;99.90;;;;;;5020231;28;20094;-77
2022/11/19 07:54:13;;;;;;;1.92;0.88;;;8.90;99.90;;;;;;5014065;28;20103;-77
2022/11/19 07:56:39;;;;;;;2.05;1.00;;;8.90;99.90;;;;;;4987815;28;20061;-77
2022/11/19 07:59:06;;;;;;;2.38;0.85;;;8.90;99.90;;;;;;4988872;28;20396;-77
2022/11/19 08:01:33;;;;;;;1.73;0.85;;;9.00;99.90;;;;;;5021074;28;20403;-76
2022/11/19 08:04:00;;;;;;;2.45;1.00;;;9.00;99.90;;;;;;5004010;28;20130;-78
2022/11/19 08:06:27;;;;;;;2.50;1.00;;;9.00;99.90;;;;;;5019631;28;20427;-78
2022/11/19 08:08:56;;;;;;;2.38;0.90;;;9.00;99.90;;;;;;4987690;28;20049;-77
2022/11/19 08:11:23;;;;;;;2.38;0.80;;;9.00;99.90;;;;;;5003523;28;20045;-78
2022/11/19 08:13:51;;;;;;;3.22;1.10;;;9.10;99.90;;;;;;5020978;28;20076;-78
2022/11/19 08:19:08;;;;;;;1.63;0.90;;;9.10;99.90;;;;;;5031796;28;20082;-77
2022/11/19 08:21:36;;;;;;;1.55;0.90;;;9.10;99.90;;;;;;5039719;28;20257;-77
2022/11/19 08:24:03;;;;;;;4.55;1.23;;;9.10;99.90;;;;;;5023952;28;20147;-78
2022/11/19 08:26:30;;;;;;;3.30;1.23;;;9.10;99.90;;;;;;4987953;28;20057;-78
2022/11/19 08:28:57;;;;;;;2.88;1.17;;;9.10;99.90;;;;;;4995796;28;20132;-77
2022/11/19 08:31:24;;;;;;;1.60;0.90;;;9.10;99.90;;;;;;5043000;28;20059;-77
2022/11/19 08:33:51;;;;;;;2.35;0.80;;;9.10;99.90;;;;;;5024080;28;20059;-78
2022/11/19 08:36:18;;;;;;;1.55;0.95;;;9.10;99.90;;;;;;5062215;28;20139;-78
2022/11/19 08:38:45;;;;;;;1.83;0.88;;;9.10;99.90;;;;;;5028277;28;20109;-78
2022/11/19 08:44:00;;;;;;;1.35;0.88;;;9.20;99.90;;;;;;5029936;28;20503;-78
2022/11/19 08:46:27;;;;;;;1.48;1.08;;;9.20;99.90;;;;;;5025813;28;20060;-78
2022/11/19 08:48:55;;;;;;;3.22;1.48;;;9.30;99.90;;;;;;5044088;28;20086;-78
2022/11/19 08:51:21;;;;;;;2.53;0.90;;;9.30;99.90;;;;;;5027723;28;20131;-78
2022/11/19 08:53:51;;;;;;;2.10;1.05;;;9.30;99.90;;;;;;5044505;28;20092;-78
2022/11/19 08:56:18;;;;;;;1.67;0.70;;;9.40;99.90;;;;;;5043511;28;20048;-77
2022/11/19 08:58:45;;;;;;;3.40;1.10;;;9.40;99.90;;;;;;5044107;28;20075;-78
2022/11/19 09:01:13;;;;;;;1.85;0.77;;;9.40;99.90;;;;;;5011641;28;20508;-78
2022/11/19 09:03:41;;;;;;;4.45;1.63;;;9.40;99.90;;;;;;5043682;28;20049;-78
2022/11/19 09:06:07;;;;;;;3.13;1.30;;;9.40;99.90;;;;;;5010577;28;20169;-78
2022/11/19 09:08:35;;;;;;;3.03;1.42;;;9.40;99.90;;;;;;5026369;28;20858;-78
2022/11/19 09:11:09;;;;;;;2.97;1.58;;;9.40;99.90;;;;;;5010861;28;20520;-78
2022/11/19 09:13:36;;;;;;;3.78;1.15;;;9.50;99.90;;;;;;5010301;28;20049;-77
2022/11/19 09:16:04;;;;;;;2.45;1.20;;;9.50;99.90;;;;;;5041733;28;20148;-78
2022/11/19 09:18:31;;;;;;;3.53;1.50;;;9.60;99.90;;;;;;5043299;28;20064;-78
2022/11/19 09:20:58;;;;;;;3.38;1.90;;;9.60;99.90;;;;;;5041818;28;20507;-78
2022/11/19 09:23:25;;;;;;;4.82;1.50;;;9.60;99.90;;;;;;5042978;28;20068;-78
2022/11/19 09:25:59;;;;;;;2.63;0.90;;;9.70;99.90;;;;;;5035330;28;20474;-78
2022/11/19 09:28:26;;;;;;;2.35;0.90;;;9.80;99.90;;;;;;5039475;28;20448;-78
2022/11/19 09:31:11;;;;;;;2.45;1.17;;;9.80;99.90;;;;;;5022114;28;20056;-78
2022/11/19 09:33:38;;;;;;;2.83;1.45;;;9.80;99.90;;;;;;5002377;28;20373;-78
2022/11/19 09:36:05;;;;;;;1.98;1.23;;;9.90;99.90;;;;;;5014621;28;20082;-77
2022/11/19 09:38:33;;;;;;;3.33;1.35;;;9.90;99.90;;;;;;5022896;28;20088;-77
2022/11/19 09:41:38;;;;;;;3.90;1.73;;;9.90;99.90;;;;;;5024775;28;20056;-78
2022/11/19 09:44:04;;;;;;;;;;;9.90;99.90;;;;;;5061722;28;20044;-77
2022/11/19 09:46:53;;;;;;;4.25;1.80;;;9.90;99.90;;;;;;5043135;28;19932;-78
2022/11/19 09:49:48;;;;;;;5.00;1.40;;;9.90;99.90;;;;;;5042806;28;20525;-78
2022/11/19 09:52:19;;;;;;;1.73;1.10;;;10.00;99.90;;;;;;5034563;28;20484;-79
2022/11/19 09:54:48;;;;;;;4.57;1.40;;;10.10;99.90;;;;;;5042564;28;20466;-78
2022/11/19 09:57:21;;;;;;;5.30;1.40;;;10.10;99.90;;;;;;5009420;28;20052;-78
2022/11/19 09:59:47;;;;;;;5.57;1.33;;;10.10;99.90;;;;;;5043137;28;20056;-78
2022/11/19 10:02:16;;;;;;;2.90;1.58;;;10.10;99.90;;;;;;5009785;28;20555;-78
2022/11/19 10:04:43;;;;;;;3.22;1.52;;;10.20;99.90;;;;;;5026406;28;20045;-79
2022/11/19 10:07:44;;;;;;;4.05;1.20;;;10.20;99.90;;;;;;5026398;28;20048;-78
2022/11/19 10:10:23;;;;;;;4.05;1.30;;;10.20;99.90;;;;;;5059847;28;20488;-78
2022/11/19 10:13:10;;;;;;;2.92;1.20;;;10.20;99.90;;;;;;5042388;28;20048;-79
2022/11/19 10:16:02;;;;;;;2.60;1.80;;;10.30;99.90;;;;;;5058841;28;20071;-79
2022/11/19 10:18:46;;;;;;;2.38;1.00;;;10.30;99.90;;;;;;5027340;28;20049;-79
2022/11/19 10:21:13;;;;;;;;;;;10.40;99.90;;;;;;5042192;28;20135;-79
2022/11/19 10:23:59;;;;;;;4.45;1.17;;;10.40;99.90;;;;;;5042394;28;20180;-78
2022/11/19 10:26:33;;;;;;;4.03;1.35;;;10.40;99.90;;;;;;5025921;28;20397;-78
2022/11/19 10:29:00;;;;;;;2.97;1.10;;;10.40;99.90;;;;;;5026145;28;20571;-79
2022/11/19 10:31:37;;;;;;;3.65;1.33;;;10.50;99.90;;;;;;5042858;28;20093;-78
2022/11/19 10:34:25;;;;;;;2.60;1.30;;;10.50;99.90;;;;;;5042676;28;20048;-78
2022/11/19 10:36:57;;;;;;;2.65;1.52;;;10.50;99.90;;;;;;5042157;28;20471;-79
2022/11/19 10:39:35;;;;;;;1.25;0.90;;;10.60;99.90;;;;;;5042010;28;20044;-78
2022/11/19 10:42:13;;;;;;;1.80;1.00;;;10.70;99.90;;;;;;5042952;28;20051;-79
2022/11/19 10:44:42;;;;;;;1.50;0.82;;;10.70;99.90;;;;;;5042320;28;20087;-79
2022/11/19 10:47:16;;;;;;;1.48;0.88;;;10.80;99.90;;;;;;5025306;28;20162;-79
2022/11/19 10:49:45;;;;;;;2.70;1.20;;;10.90;99.90;;;;;;5026349;28;20155;-79
2022/11/19 10:52:22;;;;;;;4.38;1.05;;;10.90;99.90;;;;;;5041163;28;20135;-79
2022/11/19 10:54:51;;;;;;;1.73;1.02;;;10.90;99.90;;;;;;5041666;28;20052;-79
2022/11/19 10:57:18;;;;;;;3.05;1.20;;;10.90;99.90;;;;;;5025315;28;20083;-78
2022/11/19 10:59:45;;;;;;;4.40;1.20;;;11.00;99.90;;;;;;5042332;28;20352;-78
2022/11/19 11:02:38;;;;;;;1.80;1.00;;;11.00;99.90;;;;;;5025371;28;20847;-78
2022/11/19 11:05:10;;;;;;;2.45;1.10;;;11.00;99.90;;;;;;5021384;28;20084;-78
2022/11/19 11:07:54;;;;;;;2.60;1.20;;;11.10;99.90;;;;;;5022287;28;20227;-78
2022/11/19 11:10:41;;;;;;;2.83;1.33;;;11.10;99.90;;;;;;5032250;28;20473;-79
2022/11/19 11:16:16;;;;;;;1.63;0.90;;;11.00;99.90;;;;;;5042665;28;20654;-77
2022/11/19 11:18:43;;;;;;;1.60;0.98;;;11.00;99.90;;;;;;5041030;28;20071;-77
2022/11/19 11:21:12;;;;;;;3.20;1.27;;;11.10;99.90;;;;;;5040209;28;20134;-78
2022/11/19 11:23:47;;;;;;;4.35;1.30;;;11.10;99.90;;;;;;5008456;28;20131;-79
2022/11/19 11:26:17;;;;;;;1.42;0.82;;;11.10;99.90;;;;;;5009408;28;20412;-77
2022/11/19 11:28:56;;;;;;;1.02;0.70;;;11.10;99.90;;;;;;5025309;28;20124;-77
2022/11/19 11:31:36;;;;;;;2.33;1.15;;;11.20;99.90;;;;;;5025518;28;20512;-76
2022/11/19 11:34:04;;;;;;;2.25;0.90;;;11.30;99.90;;;;;;5009473;28;20131;-76
2022/11/19 11:36:34;;;;;;;1.67;1.00;;;11.30;99.90;;;;;;5023964;28;20088;-76
2022/11/19 11:39:02;;;;;;;1.38;0.80;;;11.40;99.90;;;;;;5024508;28;20142;-76
2022/11/19 11:41:37;;;;;;;3.05;1.52;;;11.40;99.90;;;;;;5002196;28;20048;-76
2022/11/19 11:44:28;;;;;;;2.90;1.20;;;11.50;99.90;;;;;;5030675;28;20369;-75
2022/11/19 11:47:00;;;;;;;3.13;1.60;;;11.60;99.90;;;;;;5008891;28;20056;-76
2022/11/19 11:49:34;;;;;;;2.25;1.20;;;11.60;99.90;;;;;;5041131;28;20123;-76
2022/11/19 11:52:21;;;;;;;3.10;1.17;;;11.60;99.90;;;;;;5041190;28;20228;-76
2022/11/19 11:55:05;;;;;;;1.75;1.25;;;11.60;99.90;;;;;;5024476;28;20052;-76
2022/11/19 11:57:33;;;;;;;3.13;1.70;;;11.60;99.90;;;;;;5008582;28;20064;-76
2022/11/19 12:00:01;;;;;;;2.35;1.25;;;11.60;99.90;;;;;;5024455;28;20136;-76
2022/11/19 12:02:29;;;;;;;4.57;1.60;;;11.50;99.90;;;;;;5007941;28;20424;-76
2022/11/19 12:05:05;;;;;;;4.28;1.80;;;11.40;99.90;;;;;;5025220;28;20112;-83
2022/11/19 12:07:38;;;;;;;3.20;1.40;;;11.40;99.90;;;;;;5025091;28;20185;-76
2022/11/19 12:10:05;;;;;;;;;;;11.40;99.90;;;;;;5023671;28;20052;-77
2022/11/19 12:13:09;;;;;;;2.63;1.15;;;11.50;99.90;;;;;;5040241;28;19944;-77
2022/11/19 12:15:52;;;;;;;2.95;1.23;;;11.50;99.90;;;;;;5038451;28;20707;-78
2022/11/19 12:18:21;;;;;;;1.33;0.90;;;11.50;99.90;;;;;;5039813;28;20139;-77
2022/11/19 12:21:07;;;;;;;1.52;1.00;;;11.50;99.90;;;;;;5057807;28;20381;-77
2022/11/19 12:23:58;;;;;;;2.10;0.95;;;11.50;99.90;;;;;;5058453;28;20107;-77
2022/11/19 12:26:35;;;;;;;2.80;1.30;;;11.50;99.90;;;;;;5029216;28;20052;-77
2022/11/19 12:29:13;;;;;;;2.50;0.85;;;11.50;99.90;;;;;;5007624;28;20168;-77
2022/11/19 12:31:58;;;;;;;3.50;1.40;;;11.50;99.90;;;;;;5040307;28;20493;-77
2022/11/19 12:34:34;;;;;;;1.67;1.13;;;11.40;99.90;;;;;;5019286;28;20132;-76
2022/11/19 12:37:19;;;;;;;2.83;1.02;;;11.40;99.90;;;;;;5003045;28;20124;-79
2022/11/19 12:40:23;;;;;;;2.47;1.00;;;11.40;99.90;;;;;;5019394;28;20111;-78
2022/11/19 12:43:05;;;;;;;4.53;1.85;;;11.40;99.90;;;;;;4982324;28;20044;-78
2022/11/19 12:45:51;;;;;;;3.47;1.35;;;11.50;99.90;;;;;;5004492;28;20057;-78
2022/11/19 12:48:24;;;;;;;2.13;1.25;;;11.40;99.90;;;;;;5003882;28;20052;-77
2022/11/19 12:50:54;;;;;;;3.72;1.48;;;11.30;99.90;;;;;;5037220;28;20052;-78
2022/11/19 12:53:21;;;;;;;4.45;1.75;;;11.30;99.90;;;;;;5015359;28;20251;-77
2022/11/19 12:55:51;;;;;;;3.45;1.40;;;11.20;99.90;;;;;;5013737;28;20075;-78
2022/11/19 12:58:24;;;;;;;2.55;1.67;;;11.10;99.90;;;;;;5027443;28;20103;-77
2022/11/19 13:00:59;;;;;;;2.10;1.25;;;11.00;99.90;;;;;;5028638;28;20555;-78
2022/11/19 13:03:36;;;;;;;3.38;1.42;;;11.10;99.90;;;;;;5015688;28;20110;-78
2022/11/19 13:06:07;;;;;;;2.75;1.30;;;11.00;99.90;;;;;;5019317;28;20045;-78
2022/11/19 13:08:42;;;;;;;4.50;1.50;;;11.00;99.90;;;;;;5003743;28;20221;-78
2022/11/19 13:11:35;;;;;;;2.85;1.30;;;10.90;99.90;;;;;;5019927;28;20070;-78
2022/11/19 13:14:11;;;;;;;1.70;1.48;;;10.90;99.90;;;;;;5003407;28;20076;-78
2022/11/19 13:16:38;;;;;;;1.55;0.88;;;10.90;99.90;;;;;;5022751;28;20441;-77
2022/11/19 13:19:18;;;;;;;1.95;1.13;;;10.90;99.90;;;;;;5023252;28;20452;-79
2022/11/19 13:21:55;;;;;;;3.15;1.48;;;10.90;99.90;;;;;;5023095;28;20104;-78
2022/11/19 13:24:24;;;;;;;2.47;1.40;;;10.90;99.90;;;;;;5022352;28;20045;-76
2022/11/19 13:26:51;;;;;;;3.65;1.45;;;10.80;99.90;;;;;;5006283;28;20177;-77
2022/11/19 13:29:34;;;;;;;2.33;1.25;;;10.90;99.90;;;;;;4990612;28;20148;-76
2022/11/19 13:32:09;;;;;;;4.22;1.60;;;10.90;99.90;;;;;;5007072;28;20227;-77
2022/11/19 13:34:56;;;;;;;3.75;1.80;;;10.80;99.90;;;;;;5006752;28;20076;-77
2022/11/19 13:37:41;;;;;;;3.47;1.85;;;10.70;99.90;;;;;;4991765;28;20136;-76
2022/11/19 13:40:24;;;;;;;3.15;1.27;;;10.70;99.90;;;;;;5021948;28;20045;-77
2022/11/19 13:46:10;;;;;;;1.85;0.93;;;10.80;99.90;;;;;;5017356;28;20052;-77
2022/11/19 13:49:10;;;;;;;7.03;1.80;;;10.80;99.90;;;;;;4990620;28;20053;-77